createdAt,value
2024-02-05T06:01:34.339Z,50.00
2024-02-05T06:02:11.764Z,50.00
2024-02-05T06:03:11.776Z,50.00
2024-02-05T06:04:11.793Z,50.00
2024-02-05T06:05:12.043Z,50.00
2024-02-05T06:06:11.770Z,50.00
2024-02-05T06:07:27.744Z,37.01
2024-02-05T06:08:14.390Z,8.75
2024-02-05T06:09:15.229Z,0.00
2024-02-05T06:10:12.813Z,0.00
2024-02-05T06:11:11.806Z,0.00
2024-02-05T06:12:11.859Z,0.00
2024-02-05T06:13:11.970Z,0.00
2024-02-05T06:14:11.884Z,0.00
2024-02-05T06:15:11.900Z,0.00
2024-02-05T06:16:12.151Z,0.00
2024-02-05T06:17:11.919Z,0.00
2024-02-05T06:18:12.014Z,0.00
2024-02-05T06:19:12.051Z,0.00
2024-02-05T06:20:14.299Z,0.00
2024-02-05T06:21:11.934Z,0.00
2024-02-05T06:22:11.982Z,0.00
2024-02-05T06:23:11.989Z,0.00
2024-02-05T06:24:11.954Z,0.00
2024-02-05T06:25:12.055Z,0.00
2024-02-05T06:26:11.969Z,0.00
2024-02-05T06:27:11.984Z,0.00
2024-02-05T06:28:11.978Z,0.00
2024-02-05T06:29:11.985Z,0.00
2024-02-05T06:30:11.972Z,16.20
2024-02-05T06:31:12.038Z,40.23
2024-02-05T06:32:11.983Z,50.00
2024-02-05T06:33:12.009Z,50.37
2024-02-05T06:34:12.091Z,50.00
2024-02-05T06:35:12.233Z,50.36
2024-02-05T06:36:11.961Z,50.53
2024-02-05T06:37:12.000Z,50.00
2024-02-05T06:38:12.006Z,50.76
2024-02-05T06:39:11.995Z,50.00
2024-02-05T06:40:12.023Z,49.86
2024-02-05T06:41:11.971Z,51.97
2024-02-05T06:42:11.980Z,51.29
2024-02-05T06:43:12.058Z,51.17
2024-02-05T06:44:12.021Z,50.13
2024-02-05T06:45:12.037Z,50.00
2024-02-05T06:46:12.031Z,56.03
2024-02-05T06:47:12.042Z,50.03
2024-02-05T06:48:12.174Z,51.63
2024-02-05T06:49:12.239Z,50.42
2024-02-05T06:50:12.189Z,50.00
2024-02-05T06:51:15.494Z,51.23
2024-02-05T06:52:12.262Z,50.13
2024-02-05T06:53:12.218Z,51.13
2024-02-05T06:54:12.233Z,50.00
2024-02-05T06:55:12.290Z,49.66
2024-02-05T06:56:12.224Z,50.32
2024-02-05T06:57:12.245Z,49.37
2024-02-05T06:58:12.306Z,50.82
2024-02-05T06:59:12.206Z,50.37
2024-02-05T07:00:12.219Z,50.82
2024-02-05T07:01:12.333Z,51.74
2024-02-05T07:02:13.038Z,50.78
2024-02-05T07:03:12.235Z,53.14
2024-02-05T07:04:12.303Z,53.87
2024-02-05T07:05:12.355Z,55.10
2024-02-05T07:06:12.265Z,56.50
2024-02-05T07:07:12.326Z,56.50
2024-02-05T07:08:12.255Z,53.21
2024-02-05T07:09:12.272Z,52.53
2024-02-05T07:10:12.302Z,53.16
2024-02-05T07:11:12.289Z,53.69
2024-02-05T07:12:12.248Z,52.05
2024-02-05T07:13:12.393Z,54.31
2024-02-05T07:14:12.242Z,51.12
2024-02-05T07:15:12.273Z,52.90
2024-02-05T07:16:12.312Z,52.57
2024-02-05T07:17:12.251Z,55.12
2024-02-05T07:18:12.335Z,51.51
2024-02-05T07:19:12.400Z,54.19
2024-02-05T07:20:12.288Z,56.74
2024-02-05T07:21:12.277Z,57.23
2024-02-05T07:22:12.326Z,60.74
2024-02-05T07:23:12.296Z,59.73
2024-02-05T07:24:12.312Z,62.61
2024-02-05T07:25:12.358Z,66.43
2024-02-05T07:26:12.342Z,68.22
2024-02-05T07:27:12.415Z,67.31
2024-02-05T07:28:12.447Z,67.83
2024-02-05T07:29:12.447Z,68.29
2024-02-05T07:30:12.443Z,71.01
2024-02-05T07:31:12.468Z,72.75
2024-02-05T07:32:12.452Z,79.64
2024-02-05T07:33:12.497Z,81.96
2024-02-05T07:34:12.593Z,79.30
2024-02-05T07:35:12.528Z,77.29
2024-02-05T07:36:12.484Z,79.31
2024-02-05T07:37:12.544Z,76.99
2024-02-05T07:38:12.541Z,79.95
2024-02-05T07:39:12.510Z,79.67
2024-02-05T07:40:12.593Z,82.27
2024-02-05T07:41:12.640Z,79.40
2024-02-05T07:42:12.623Z,80.97
2024-02-05T07:43:12.703Z,80.14
2024-02-05T07:44:12.757Z,81.87
2024-02-05T07:45:12.800Z,81.46
2024-02-05T07:46:12.886Z,80.69
2024-02-05T07:47:12.934Z,77.29
2024-02-05T07:48:13.050Z,79.62
2024-02-05T07:49:13.181Z,79.20
2024-02-05T07:50:13.134Z,81.77
2024-02-05T07:51:13.194Z,78.57
2024-02-05T07:52:13.389Z,81.61
2024-02-05T07:53:13.344Z,82.83
2024-02-05T07:54:13.376Z,82.81
2024-02-05T07:55:13.553Z,83.99
2024-02-05T07:56:13.507Z,82.39
2024-02-05T07:57:13.646Z,86.89
2024-02-05T07:58:13.782Z,85.45
2024-02-05T07:59:13.802Z,90.07
2024-02-05T08:00:13.832Z,89.98
2024-02-05T08:01:13.948Z,90.85
2024-02-05T08:02:15.339Z,93.51
2024-02-05T08:03:14.004Z,91.31
2024-02-05T08:04:14.124Z,91.45
2024-02-05T08:05:14.316Z,90.37
2024-02-05T08:06:16.829Z,91.81
2024-02-05T08:08:14.190Z,94.58
2024-02-05T08:09:14.183Z,92.22
2024-02-05T08:10:18.208Z,94.08
2024-02-05T08:11:14.160Z,94.10
2024-02-05T08:12:14.209Z,92.91
2024-02-05T08:13:14.252Z,92.97
2024-02-05T08:14:17.088Z,93.58
2024-02-05T08:15:14.197Z,94.15
2024-02-05T08:16:14.241Z,94.45
2024-02-05T08:17:14.186Z,94.79
2024-02-05T08:18:21.382Z,94.33
2024-02-05T08:19:14.205Z,94.13
2024-02-05T08:20:14.225Z,94.45
2024-02-05T08:21:14.184Z,94.23
2024-02-05T08:22:14.332Z,95.06
2024-02-05T08:23:14.208Z,96.16
2024-02-05T08:24:14.217Z,94.71
2024-02-05T08:25:14.276Z,94.37
2024-02-05T08:26:17.221Z,94.28
2024-02-05T08:27:14.220Z,92.76
2024-02-05T08:28:14.252Z,93.45
2024-02-05T08:29:14.182Z,91.57
2024-02-05T08:30:21.166Z,94.23
2024-02-05T08:31:27.317Z,50.00
2024-02-05T08:32:27.276Z,50.00
2024-02-05T08:33:27.338Z,50.00
2024-02-05T08:34:27.386Z,50.00
2024-02-05T08:35:27.241Z,50.00
2024-02-05T08:36:27.285Z,51.08
2024-02-05T08:37:29.075Z,53.87
2024-02-05T08:38:27.378Z,56.96
2024-02-05T08:39:27.386Z,58.04
2024-02-05T08:40:27.404Z,58.81
2024-02-05T08:41:27.427Z,59.33
2024-02-05T08:42:32.405Z,54.13
2024-02-05T08:43:28.432Z,54.27
2024-02-05T08:44:27.386Z,54.68
2024-02-05T08:45:27.418Z,55.61
2024-02-05T08:46:27.452Z,56.21
2024-02-05T08:47:27.501Z,56.68
2024-02-05T08:48:27.533Z,57.66
2024-02-05T08:49:27.496Z,56.69
2024-02-05T08:50:28.987Z,55.81
2024-02-05T08:51:28.559Z,53.79
2024-02-05T08:52:27.610Z,58.73
2024-02-05T08:53:27.557Z,60.62
2024-02-05T08:54:27.749Z,63.07
2024-02-05T08:55:27.777Z,61.42
2024-02-05T08:56:27.685Z,63.84
2024-02-05T08:57:27.732Z,66.24
2024-02-05T08:58:27.915Z,65.64
2024-02-05T08:59:27.756Z,66.71
2024-02-05T09:00:27.795Z,68.22
2024-02-05T09:01:28.005Z,68.46
2024-02-05T09:02:28.027Z,67.65
2024-02-05T09:03:27.945Z,68.05
2024-02-05T09:04:27.938Z,68.20
2024-02-05T09:05:37.420Z,71.14
2024-02-05T09:06:29.107Z,69.87
2024-02-05T09:07:27.999Z,71.15
2024-02-05T09:08:27.941Z,72.74
2024-02-05T09:09:28.399Z,73.59
2024-02-05T09:10:28.999Z,75.98
2024-02-05T09:11:27.945Z,77.67
2024-02-05T09:12:27.920Z,77.44
2024-02-05T09:13:27.960Z,74.90
2024-02-05T09:14:27.958Z,72.49
2024-02-05T09:15:28.098Z,72.35
2024-02-05T09:16:27.937Z,70.84
2024-02-05T09:17:27.943Z,69.00
2024-02-05T09:18:28.120Z,66.31
2024-02-05T09:19:28.088Z,65.36
2024-02-05T09:20:27.940Z,62.66
2024-02-05T09:21:27.996Z,61.42
2024-02-05T09:22:28.130Z,60.78
2024-02-05T09:23:28.024Z,57.51
2024-02-05T09:24:28.105Z,57.38
2024-02-05T09:25:28.298Z,54.72
2024-02-05T09:26:28.206Z,51.52
2024-02-05T09:27:28.309Z,50.58
2024-02-05T09:28:28.533Z,50.90
2024-02-05T09:29:28.434Z,51.41
2024-02-05T09:30:28.493Z,50.51
2024-02-05T09:31:28.618Z,50.00
2024-02-05T09:32:28.652Z,49.68
2024-02-05T09:33:28.669Z,51.71
2024-02-05T09:34:28.911Z,50.00
2024-02-05T09:35:28.970Z,52.52
2024-02-05T09:36:28.925Z,52.23
2024-02-05T09:37:29.463Z,50.59
2024-02-05T09:38:29.871Z,51.09
2024-02-05T09:39:29.085Z,50.75
2024-02-05T09:40:29.212Z,50.97
2024-02-05T09:41:29.191Z,50.00
2024-02-05T09:42:29.302Z,53.80
2024-02-05T09:43:29.326Z,53.00
2024-02-05T09:44:30.917Z,50.30
2024-02-05T09:45:29.449Z,50.37
2024-02-05T09:46:29.659Z,50.62
2024-02-05T09:47:30.084Z,50.64
2024-02-05T09:48:37.100Z,50.73
2024-02-05T09:49:31.600Z,46.42
2024-02-05T09:50:29.703Z,47.95
2024-02-05T09:51:29.594Z,48.55
2024-02-05T09:52:29.597Z,47.16
2024-02-05T09:53:29.510Z,47.19
2024-02-05T09:54:29.501Z,51.95
2024-02-05T09:55:30.090Z,51.42
2024-02-05T09:56:29.973Z,52.97
2024-02-05T09:57:29.928Z,54.25
2024-02-05T09:58:29.641Z,50.35
2024-02-05T09:59:29.490Z,50.48
2024-02-05T10:00:29.476Z,50.86
2024-02-05T10:01:29.616Z,50.96
2024-02-05T10:02:29.589Z,54.01
2024-02-05T10:03:29.642Z,52.87
2024-02-05T10:04:29.700Z,56.79
2024-02-05T10:05:29.528Z,58.17
2024-02-05T10:06:29.497Z,57.17
2024-02-05T10:07:29.553Z,56.77
2024-02-05T10:08:29.487Z,56.28
2024-02-05T10:09:29.509Z,56.34
2024-02-05T10:10:29.592Z,56.33
2024-02-05T10:11:29.742Z,57.07
2024-02-05T10:12:29.506Z,55.71
2024-02-05T10:13:29.562Z,57.27
2024-02-05T10:14:30.253Z,57.01
2024-02-05T10:15:29.544Z,59.44
2024-02-05T10:16:29.609Z,59.73
2024-02-05T10:17:31.959Z,61.72
2024-02-05T10:18:29.790Z,62.12
2024-02-05T10:19:30.365Z,62.02
2024-02-05T10:20:29.723Z,62.60
2024-02-05T10:21:29.827Z,61.51
2024-02-05T10:22:30.038Z,63.53
2024-02-05T10:23:32.237Z,65.43
2024-02-05T10:24:30.119Z,67.17
2024-02-05T10:25:30.132Z,70.03
2024-02-05T10:26:34.922Z,69.26
2024-02-05T10:27:30.884Z,69.36
2024-02-05T10:28:30.358Z,69.57
2024-02-05T10:29:30.287Z,71.41
2024-02-05T10:30:30.184Z,75.76
2024-02-05T10:31:30.282Z,81.73
2024-02-05T10:32:30.199Z,91.80
2024-02-05T10:33:32.075Z,96.22
2024-02-05T10:34:30.254Z,96.41
2024-02-05T10:35:30.211Z,100.70
2024-02-05T10:36:30.331Z,103.00
2024-02-05T10:37:30.246Z,105.88
2024-02-05T10:38:31.227Z,108.14
2024-02-05T10:39:30.212Z,113.70
2024-02-05T10:40:30.296Z,114.27
2024-02-05T10:41:30.350Z,111.65
2024-02-05T10:42:30.337Z,111.94
2024-02-05T10:43:30.422Z,111.29
2024-02-05T10:44:38.012Z,112.30
2024-02-05T10:45:31.438Z,112.19
2024-02-05T10:46:30.532Z,110.43
2024-02-05T10:47:30.610Z,108.56
2024-02-05T10:48:30.503Z,110.24
2024-02-05T10:49:30.505Z,108.56
2024-02-05T10:50:30.447Z,106.88
2024-02-05T10:51:30.519Z,105.60
2024-02-05T10:52:30.601Z,105.95
2024-02-05T10:53:30.521Z,106.81
2024-02-05T10:54:30.456Z,108.12
2024-02-05T10:55:30.877Z,107.46
2024-02-05T10:56:30.551Z,107.86
2024-02-05T10:57:31.722Z,108.02
2024-02-05T10:58:30.762Z,107.07
2024-02-05T10:59:30.681Z,103.45
2024-02-05T11:00:30.756Z,97.41
2024-02-05T11:01:30.783Z,95.63
2024-02-05T11:02:30.854Z,95.43
2024-02-05T11:03:30.910Z,90.30
2024-02-05T11:04:31.096Z,86.98
2024-02-05T11:05:31.136Z,87.35
2024-02-05T11:06:31.085Z,85.51
2024-02-05T11:07:31.226Z,84.19
2024-02-05T11:08:31.171Z,84.40
2024-02-05T11:09:34.410Z,81.20
2024-02-05T11:10:32.364Z,77.29
2024-02-05T11:11:31.214Z,75.18
2024-02-05T11:12:31.264Z,72.46
2024-02-05T11:13:31.642Z,68.07
2024-02-05T11:14:31.163Z,62.59
2024-02-05T11:15:31.304Z,57.56
2024-02-05T11:16:31.237Z,56.38
2024-02-05T11:17:31.257Z,53.87
2024-02-05T11:18:31.192Z,52.26
2024-02-05T11:19:31.260Z,50.00
2024-02-05T11:20:32.073Z,51.00
2024-02-05T11:21:31.980Z,52.44
2024-02-05T11:22:33.954Z,52.12
2024-02-05T11:23:31.323Z,53.70
2024-02-05T11:24:31.207Z,56.07
2024-02-05T11:25:31.309Z,55.58
2024-02-05T11:26:31.198Z,57.36
2024-02-05T11:27:31.229Z,57.67
2024-02-05T11:28:31.250Z,53.66
2024-02-05T11:29:31.270Z,58.50
2024-02-05T11:30:31.249Z,57.79
2024-02-05T11:31:31.351Z,61.10
2024-02-05T11:32:31.297Z,64.12
2024-02-05T11:33:31.318Z,63.72
2024-02-05T11:34:31.317Z,60.90
2024-02-05T11:35:31.293Z,65.85
2024-02-05T11:36:31.240Z,70.57
2024-02-05T11:37:31.354Z,72.30
2024-02-05T11:38:31.206Z,74.23
2024-02-05T11:39:31.227Z,79.53
2024-02-05T11:40:34.050Z,81.89
2024-02-05T11:41:31.210Z,81.93
2024-02-05T11:42:31.244Z,81.92
2024-02-05T11:43:31.437Z,83.59
2024-02-05T11:44:31.236Z,85.02
2024-02-05T11:45:31.228Z,90.70
2024-02-05T11:46:31.314Z,94.62
2024-02-05T11:47:31.297Z,88.03
2024-02-05T11:48:31.315Z,85.28
2024-02-05T11:49:31.289Z,81.62
2024-02-05T11:50:31.208Z,75.98
2024-02-05T11:51:32.845Z,65.87
2024-02-05T11:52:31.638Z,58.73
2024-02-05T11:53:31.237Z,56.56
2024-02-05T11:54:31.269Z,56.40
2024-02-05T11:55:31.349Z,54.52
2024-02-05T11:56:31.262Z,57.28
2024-02-05T11:57:31.973Z,60.55
2024-02-05T11:58:31.310Z,63.55
2024-02-05T11:59:31.250Z,63.28
2024-02-05T12:00:31.281Z,63.38
2024-02-05T12:01:31.309Z,62.78
2024-02-05T12:02:31.248Z,65.32
2024-02-05T12:03:31.491Z,66.03
2024-02-05T12:04:31.331Z,64.50
2024-02-05T12:05:31.302Z,66.32
2024-02-05T12:06:31.278Z,67.46
2024-02-05T12:07:31.269Z,65.11
2024-02-05T12:08:31.231Z,67.16
2024-02-05T12:09:31.248Z,67.06
2024-02-05T12:10:31.368Z,65.77
2024-02-05T12:11:31.213Z,65.58
2024-02-05T12:12:31.320Z,66.01
2024-02-05T12:13:31.318Z,66.90
2024-02-05T12:14:31.382Z,63.16
2024-02-05T12:15:31.458Z,65.49
2024-02-05T12:16:31.383Z,65.33
2024-02-05T12:17:31.365Z,67.11
2024-02-05T12:18:31.349Z,64.89
2024-02-05T12:19:31.586Z,66.03
2024-02-05T12:20:31.549Z,66.05
2024-02-05T12:21:31.316Z,69.04
2024-02-05T12:22:31.665Z,68.08
2024-02-05T12:23:31.361Z,69.10
2024-02-05T12:24:31.319Z,67.56
2024-02-05T12:25:38.625Z,69.97
2024-02-05T12:26:32.403Z,70.00
2024-02-05T12:27:31.503Z,70.14
2024-02-05T12:28:31.581Z,70.53
2024-02-05T12:29:31.390Z,71.10
2024-02-05T12:30:31.442Z,75.72
2024-02-05T12:31:31.415Z,77.06
2024-02-05T12:32:38.219Z,79.41
2024-02-05T12:33:32.479Z,79.48
2024-02-05T12:34:31.482Z,79.53
2024-02-05T12:35:31.394Z,80.78
2024-02-05T12:36:31.370Z,82.83
2024-02-05T12:37:31.358Z,85.33
2024-02-05T12:38:31.806Z,87.54
2024-02-05T12:39:31.377Z,86.67
2024-02-05T12:40:31.429Z,86.17
2024-02-05T12:41:31.372Z,86.73
2024-02-05T12:42:31.361Z,88.10
2024-02-05T12:43:31.515Z,87.58
2024-02-05T12:44:38.478Z,85.02
2024-02-05T12:45:32.532Z,85.10
2024-02-05T12:46:31.633Z,85.68
2024-02-05T12:47:31.416Z,86.81
2024-02-05T12:48:31.540Z,87.50
2024-02-05T12:49:32.051Z,88.82
2024-02-05T12:50:33.802Z,85.23
2024-02-05T12:51:31.539Z,85.68
2024-02-05T12:52:31.662Z,86.29
2024-02-05T12:53:31.672Z,87.62
2024-02-05T12:54:31.725Z,88.65
2024-02-05T12:55:31.795Z,90.23
2024-02-05T12:56:31.867Z,89.59
2024-02-05T12:57:31.835Z,88.49
2024-02-05T12:58:31.935Z,91.66
2024-02-05T12:59:31.945Z,92.40
2024-02-05T13:00:31.932Z,91.85
2024-02-05T13:01:32.079Z,91.97
2024-02-05T13:02:32.016Z,92.28
2024-02-05T13:03:31.951Z,92.84
2024-02-05T13:04:32.711Z,94.60
2024-02-05T13:05:32.065Z,95.46
2024-02-05T13:06:32.146Z,97.55
2024-02-05T13:07:32.194Z,98.56
2024-02-05T13:08:31.999Z,96.73
2024-02-05T13:09:32.010Z,99.80
2024-02-05T13:10:32.027Z,99.37
2024-02-05T13:11:32.140Z,98.10
2024-02-05T13:12:31.940Z,98.74
2024-02-05T13:13:32.004Z,100.21
2024-02-05T13:14:31.951Z,99.29
2024-02-05T13:15:31.922Z,98.62
2024-02-05T13:16:31.967Z,99.29
2024-02-05T13:17:31.994Z,97.69
2024-02-05T13:18:32.140Z,96.64
2024-02-05T13:19:32.208Z,96.85
2024-02-05T13:20:31.966Z,95.08
2024-02-05T13:21:31.933Z,93.81
2024-02-05T13:22:32.129Z,91.33
2024-02-05T13:23:32.043Z,91.41
2024-02-05T13:24:32.105Z,90.29
2024-02-05T13:25:33.506Z,89.67
2024-02-05T13:26:32.160Z,89.48
2024-02-05T13:27:32.202Z,87.71
2024-02-05T13:28:32.198Z,85.36
2024-02-05T13:29:32.172Z,84.32
2024-02-05T13:30:32.169Z,83.64
2024-02-05T13:31:33.034Z,86.32
2024-02-05T13:32:32.157Z,83.77
2024-02-05T13:33:32.180Z,81.65
2024-02-05T13:34:32.263Z,84.13
2024-02-05T13:35:32.172Z,81.16
2024-02-05T13:36:32.198Z,80.88
2024-02-05T13:37:32.253Z,79.49
2024-02-05T13:38:32.160Z,81.47
2024-02-05T13:39:32.175Z,80.51
2024-02-05T13:40:32.212Z,79.61
2024-02-05T13:41:32.174Z,78.97
2024-02-05T13:42:32.171Z,78.57
2024-02-05T13:43:32.246Z,76.88
2024-02-05T13:44:32.180Z,76.25
2024-02-05T13:45:32.156Z,75.31
2024-02-05T13:46:32.242Z,77.11
2024-02-05T13:47:32.179Z,75.91
2024-02-05T13:48:32.211Z,75.71
2024-02-05T13:49:32.260Z,75.71
2024-02-05T13:50:32.266Z,75.80
2024-02-05T13:51:32.489Z,75.42
2024-02-05T13:52:32.279Z,71.17
2024-02-05T13:53:32.206Z,72.56
2024-02-05T13:54:32.203Z,73.03
2024-02-05T13:55:32.249Z,70.77
2024-02-05T13:56:32.217Z,71.64
2024-02-05T13:57:32.203Z,71.45
2024-02-05T13:58:32.223Z,68.88
2024-02-05T13:59:32.224Z,66.61
2024-02-05T14:00:32.216Z,67.80
2024-02-05T14:01:32.350Z,66.47
2024-02-05T14:02:32.203Z,63.53
2024-02-05T14:03:32.245Z,64.65
2024-02-05T14:04:32.312Z,63.24
2024-02-05T14:05:32.254Z,65.67
2024-02-05T14:06:32.255Z,65.62
2024-02-05T14:07:32.401Z,61.15
2024-02-05T14:08:32.319Z,61.27
2024-02-05T14:09:32.268Z,57.91
2024-02-05T14:10:33.334Z,60.53
2024-02-05T14:11:33.054Z,60.21
2024-02-05T14:12:32.315Z,60.23
2024-02-05T14:13:32.257Z,60.26
2024-02-05T14:14:32.384Z,60.27
2024-02-05T14:15:32.242Z,60.57
2024-02-05T14:16:32.640Z,60.34
2024-02-05T14:17:32.277Z,60.26
2024-02-05T14:18:32.484Z,59.52
2024-02-05T14:19:32.309Z,62.63
2024-02-05T14:20:32.278Z,58.48
2024-02-05T14:21:32.240Z,59.26
2024-02-05T14:22:32.258Z,56.19
2024-02-05T14:23:32.232Z,57.42
2024-02-05T14:24:32.253Z,59.22
2024-02-05T14:25:32.396Z,57.96
2024-02-05T14:26:32.230Z,57.44
2024-02-05T14:27:32.252Z,58.33
2024-02-05T14:28:34.368Z,59.61
2024-02-05T14:29:32.315Z,60.55
2024-02-05T14:30:32.264Z,62.64
2024-02-05T14:31:32.323Z,64.27
2024-02-05T14:32:32.321Z,64.42
2024-02-05T14:33:32.323Z,62.07
2024-02-05T14:34:32.422Z,54.02
2024-02-05T14:35:32.402Z,47.14
2024-02-05T14:36:32.339Z,47.50
2024-02-05T14:37:32.348Z,51.80
2024-02-05T14:38:32.328Z,67.84
2024-02-05T14:39:32.309Z,77.23
2024-02-05T14:40:32.460Z,83.53
2024-02-05T14:41:32.411Z,87.71
2024-02-05T14:42:32.281Z,91.57
2024-02-05T14:43:32.326Z,96.20
2024-02-05T14:44:32.342Z,98.21
2024-02-05T14:45:33.298Z,97.37
2024-02-05T14:46:32.340Z,101.33
2024-02-05T14:47:32.503Z,100.83
2024-02-05T14:48:32.671Z,99.55
2024-02-05T14:49:32.413Z,101.38
2024-02-05T14:50:32.666Z,101.99
2024-02-05T14:51:32.358Z,102.16
2024-02-05T14:52:32.392Z,102.38
2024-02-05T14:53:32.340Z,103.31
2024-02-05T14:54:32.315Z,104.29
2024-02-05T14:55:32.419Z,102.84
2024-02-05T14:56:32.385Z,104.03
2024-02-05T14:57:32.489Z,102.03
2024-02-05T14:58:32.494Z,97.67
2024-02-05T14:59:32.440Z,98.65
2024-02-05T15:00:32.513Z,95.27
2024-02-05T15:01:32.534Z,96.10
2024-02-05T15:02:32.487Z,95.31
2024-02-05T15:03:56.134Z,95.60
2024-02-05T15:04:32.586Z,95.76
2024-02-05T15:05:32.693Z,96.62
2024-02-05T15:06:32.570Z,98.06
2024-02-05T15:07:32.669Z,101.22
2024-02-05T15:08:32.525Z,106.74
2024-02-05T15:09:32.545Z,111.51
2024-02-05T15:10:32.567Z,115.02
2024-02-05T15:11:32.503Z,118.62
2024-02-05T15:12:32.556Z,119.36
2024-02-05T15:13:32.584Z,121.17
2024-02-05T15:14:32.546Z,121.33
2024-02-05T15:15:32.529Z,124.35
2024-02-05T15:16:32.656Z,122.59
2024-02-05T15:17:32.635Z,117.78
2024-02-05T15:18:32.546Z,116.09
2024-02-05T15:19:32.709Z,114.67
2024-02-05T15:20:32.540Z,114.01
2024-02-05T15:21:32.546Z,112.57
2024-02-05T15:22:32.597Z,109.37
2024-02-05T15:23:32.584Z,108.82
2024-02-05T15:24:32.619Z,108.05
2024-02-05T15:25:32.613Z,105.58
2024-02-05T15:26:32.530Z,107.04
2024-02-05T15:27:32.533Z,108.68
2024-02-05T15:28:32.566Z,106.71
2024-02-05T15:29:32.541Z,106.89
2024-02-05T15:30:32.548Z,107.55
2024-02-05T15:31:32.634Z,104.64
2024-02-05T15:32:32.664Z,104.16
2024-02-05T15:33:32.580Z,104.45
2024-02-05T15:34:32.617Z,105.15
2024-02-05T15:35:32.683Z,105.38
2024-02-05T15:36:32.554Z,103.70
2024-02-05T15:37:32.771Z,102.58
2024-02-05T15:38:32.557Z,101.40
2024-02-05T15:39:32.535Z,101.94
2024-02-05T15:40:32.590Z,100.42
2024-02-05T15:41:32.539Z,101.09
2024-02-05T15:42:32.562Z,102.38
2024-02-05T15:43:32.697Z,101.09
2024-02-05T15:44:32.553Z,99.86
2024-02-05T15:45:32.559Z,100.33
2024-02-05T15:46:32.680Z,98.90
2024-02-05T15:47:32.744Z,99.16
2024-02-05T15:48:32.720Z,99.24
2024-02-05T15:49:32.647Z,98.27
2024-02-05T15:50:32.561Z,98.16
2024-02-05T15:51:32.582Z,96.32
2024-02-05T15:52:32.666Z,95.21
2024-02-05T15:53:32.576Z,94.11
2024-02-05T15:54:32.608Z,94.23
2024-02-05T15:55:32.580Z,93.39
2024-02-05T15:56:37.190Z,91.72
2024-02-05T15:57:33.616Z,91.76
2024-02-05T15:58:32.954Z,91.86
2024-02-05T15:59:32.550Z,92.14
2024-02-05T16:00:32.646Z,92.70
2024-02-05T16:01:33.958Z,89.57
2024-02-05T16:02:32.570Z,88.44
2024-02-05T16:03:32.575Z,89.11
2024-02-05T16:04:32.777Z,86.17
2024-02-05T16:05:32.638Z,87.59
2024-02-05T16:06:32.605Z,83.69
2024-02-05T16:07:32.632Z,84.64
2024-02-05T16:08:32.605Z,86.91
2024-02-05T16:11:01.111Z,86.80
2024-02-05T16:11:37.717Z,87.33
2024-02-05T16:13:00.306Z,89.72
2024-02-05T16:14:00.282Z,87.28
2024-02-05T16:16:06.745Z,86.80
2024-02-05T16:16:42.716Z,87.66
2024-02-05T16:17:42.699Z,92.11
2024-02-05T16:18:44.970Z,98.64
2024-02-05T16:19:43.039Z,88.24
2024-02-05T16:20:43.030Z,91.73
2024-02-05T16:21:42.992Z,97.85
2024-02-05T16:22:43.123Z,102.30
2024-02-05T16:23:43.112Z,110.08
2024-02-05T16:24:43.194Z,110.46
2024-02-05T16:25:43.290Z,108.43
2024-02-05T16:26:43.313Z,106.89
2024-02-05T16:27:43.395Z,103.49
2024-02-05T16:28:43.495Z,103.09
2024-02-05T16:29:43.480Z,103.10
2024-02-05T16:30:43.547Z,101.97
2024-02-05T16:31:43.853Z,100.62
2024-02-05T16:32:43.857Z,98.91
2024-02-05T16:33:43.792Z,98.84
2024-02-05T16:34:43.786Z,100.25
2024-02-05T16:35:43.811Z,100.24
2024-02-05T16:36:43.849Z,98.70
2024-02-05T16:37:44.063Z,97.46
2024-02-05T16:38:43.960Z,95.88
2024-02-05T16:39:44.050Z,100.36
2024-02-05T16:40:44.096Z,98.32
2024-02-05T16:41:44.165Z,98.86
2024-02-05T16:42:44.204Z,99.07
2024-02-05T16:43:44.268Z,96.84
2024-02-05T16:44:44.305Z,95.87
2024-02-05T16:45:44.357Z,96.68
2024-02-05T16:46:44.429Z,98.68
2024-02-05T16:47:44.466Z,96.15
2024-02-05T16:48:44.583Z,95.21
2024-02-05T16:49:44.629Z,95.26
2024-02-05T16:50:44.625Z,93.80
2024-02-05T16:51:44.694Z,95.55
2024-02-05T16:52:44.786Z,96.09
2024-02-05T16:53:44.828Z,93.28
2024-02-05T16:54:44.863Z,96.19
2024-02-05T16:55:45.027Z,96.73
2024-02-05T16:56:44.986Z,95.24
2024-02-05T16:57:45.046Z,95.86
2024-02-05T16:58:45.118Z,93.28
2024-02-05T16:59:45.169Z,96.74
2024-02-05T17:00:49.222Z,93.93
2024-02-05T17:01:46.303Z,93.98
2024-02-05T17:02:45.225Z,94.25
2024-02-05T17:03:45.225Z,93.92
2024-02-05T17:04:45.736Z,94.55
2024-02-05T17:05:45.227Z,92.94
2024-02-05T17:06:45.263Z,94.89
2024-02-05T17:07:45.552Z,96.55
2024-02-05T17:08:45.228Z,93.01
2024-02-05T17:09:45.296Z,92.88
2024-02-05T17:10:45.297Z,94.20
2024-02-05T17:11:45.310Z,94.75
2024-02-05T17:12:45.397Z,93.75
2024-02-05T17:13:45.419Z,94.92
2024-02-05T17:14:45.507Z,94.71
2024-02-05T17:15:45.666Z,95.57
2024-02-05T17:16:51.693Z,95.04
2024-02-05T17:17:46.672Z,95.09
2024-02-05T17:18:45.838Z,95.22
2024-02-05T17:19:45.767Z,96.21
2024-02-05T17:20:45.609Z,97.48
2024-02-05T17:21:45.654Z,97.61
2024-02-05T17:22:45.633Z,99.46
2024-02-05T17:23:45.636Z,99.47
2024-02-05T17:24:45.757Z,102.03
2024-02-05T17:25:45.698Z,102.80
2024-02-05T17:26:45.617Z,103.10
2024-02-05T17:27:45.716Z,103.02
2024-02-05T17:28:45.848Z,104.26
2024-02-05T17:29:45.802Z,103.57
2024-02-05T17:30:45.931Z,105.60
2024-02-05T17:31:45.974Z,105.03
2024-02-05T17:32:46.085Z,105.32
2024-02-05T17:33:46.163Z,105.48
2024-02-05T17:34:46.483Z,105.52
2024-02-05T17:35:46.236Z,104.50
2024-02-05T17:36:46.303Z,106.91
2024-02-05T17:37:46.311Z,105.28
2024-02-05T17:38:46.381Z,107.57
2024-02-05T17:39:46.472Z,106.44
2024-02-05T17:40:46.546Z,106.77
2024-02-05T17:41:46.599Z,106.25
2024-02-05T17:42:46.669Z,104.70
2024-02-05T17:43:46.726Z,105.75
2024-02-05T17:44:46.769Z,106.81
2024-02-05T17:45:46.898Z,107.57
2024-02-05T17:46:46.938Z,107.04
2024-02-05T17:47:47.037Z,105.71
2024-02-05T17:48:47.082Z,106.61
2024-02-05T17:49:47.206Z,108.15
2024-02-05T17:50:47.214Z,106.69
2024-02-05T17:51:47.287Z,104.69
2024-02-05T17:52:47.370Z,108.76
2024-02-05T17:53:47.393Z,107.59
2024-02-05T17:54:47.515Z,107.09
2024-02-05T17:55:47.597Z,108.06
2024-02-05T17:56:47.603Z,106.32
2024-02-05T17:57:47.887Z,108.03
2024-02-05T17:58:47.736Z,108.81
2024-02-05T17:59:47.782Z,110.40
2024-02-05T18:00:47.999Z,107.91
